Bowling Green St University, Ohio
Current Conditions -  °F | °C
As of 4:53 AM on Friday 24 Oct 2014 (Local Time) from KTDZ Reporting Station
Clear Clear  
Wind Chill: 40°   Ceiling: Unl
Heat Index: 40°   Visibility: 7mi
Dew Point: 36°   Wind: 3mph
Humidity: 86%   Direction: 220°SW
Pressure: 30.11"   Gusts: NA
Location:  41.3748°N, 83.6515°W
Report Text: KTDZ 240853Z AUTO 22003KT 7SM CLR 04/02 A3011 RMK AO2 SLP196 T00440022 58002 TSNO
Loading
Personal Weather Stations






























Interactive Weather Map
Tropical Storm Tracking
New forecast layout! Learn more

10-Day Weather Forecast

Advertisements
Track Severe Weather on mobile